Time;durP1;ratioP1;P1;durP2;ratioP2;P2;SDS_P1;SDS_P2;PMS_P1;PMS_P2;Temp;Humidity;BMP_temperature;BMP_pressure;BME280_temperature;BME280_humidity;BME280_pressure;Samples;Min_cycle;Max_cycle;Signal;HPM_P1;HPM_P2
2022/04/13 00:00:35;;;;;;;13.93;9.57;;;9.40;99.90;;;;;;5064436;28;20457;-85
2022/04/13 00:03:02;;;;;;;10.70;8.90;;;9.30;99.90;;;;;;5065076;28;20452;-85
2022/04/13 00:05:28;;;;;;;10.60;9.00;;;9.30;99.90;;;;;;5064195;28;20412;-84
2022/04/13 00:07:55;;;;;;;11.73;8.20;;;9.20;99.90;;;;;;5061894;28;20473;-85
2022/04/13 00:10:22;;;;;;;10.50;8.20;;;9.30;99.90;;;;;;5062338;28;20529;-85
2022/04/13 00:12:48;;;;;;;12.00;8.17;;;9.30;99.90;;;;;;5061689;28;20506;-84
2022/04/13 00:15:15;;;;;;;9.90;8.40;;;9.30;99.90;;;;;;5062085;28;20473;-85
2022/04/13 00:17:43;;;;;;;12.03;8.10;;;9.20;99.90;;;;;;5062752;28;20531;-85
2022/04/13 00:20:11;;;;;;;9.77;8.50;;;9.20;99.90;;;;;;5062595;28;20544;-84
2022/04/13 00:22:37;;;;;;;9.70;8.57;;;9.10;99.90;;;;;;5063808;28;20474;-85
2022/04/13 00:25:05;;;;;;;13.27;9.07;;;9.20;99.90;;;;;;5058532;28;20508;-85
2022/04/13 00:27:31;;;;;;;13.13;9.73;;;9.10;99.90;;;;;;5058400;28;20523;-85
2022/04/13 00:29:58;;;;;;;11.80;8.43;;;9.20;1.00;;;;;;5059638;28;20446;-85
2022/04/13 00:32:25;;;;;;;13.10;9.00;;;9.10;99.90;;;;;;5064310;28;20453;-84
2022/04/13 00:34:54;;;;;;;9.63;8.27;;;9.40;99.90;;;;;;5061844;28;20457;-85
2022/04/13 00:37:21;;;;;;;13.53;9.03;;;9.00;1.00;;;;;;5067987;28;20510;-85
2022/04/13 00:39:47;;;;;;;11.70;8.03;;;8.40;99.90;;;;;;5077425;28;20445;-85
2022/04/13 00:42:16;;;;;;;11.73;8.43;;;9.00;99.90;;;;;;5077434;28;20501;-84
2022/04/13 00:44:43;;;;;;;10.50;9.17;;;9.00;99.90;;;;;;5077049;28;20476;-84
2022/04/13 00:47:10;;;;;;;12.70;8.03;;;8.90;99.90;;;;;;5067771;28;20503;-84
2022/04/13 00:49:38;;;;;;;11.13;8.40;;;9.10;1.00;;;;;;5071880;22;20555;-80
2022/04/13 00:52:07;;;;;;;9.63;8.17;;;8.90;99.90;;;;;;5056231;28;20939;-79
2022/04/13 00:54:35;;;;;;;11.97;9.33;;;8.90;99.90;;;;;;5056848;28;20476;-81
2022/04/13 00:57:08;;;;;;;10.23;9.23;;;8.90;99.90;;;;;;5058455;28;20446;-81
2022/04/13 00:59:37;;;;;;;12.90;8.67;;;8.80;99.90;;;;;;5058604;28;20440;-81
2022/04/13 01:02:07;;;;;;;10.53;9.40;;;8.80;99.90;;;;;;5057740;28;20482;-81
2022/04/13 01:04:35;;;;;;;11.27;8.90;;;8.70;99.90;;;;;;5057047;28;20480;-80
2022/04/13 01:07:03;;;;;;;13.53;9.57;;;8.60;99.90;;;;;;5057336;28;20446;-80
2022/04/13 01:09:31;;;;;;;10.20;7.97;;;8.70;99.90;;;;;;5057654;28;20449;-81
2022/04/13 01:11:58;;;;;;;11.13;8.70;;;8.70;99.90;;;;;;5056998;28;20442;-81
2022/04/13 01:14:24;;;;;;;9.03;7.40;;;8.70;99.90;;;;;;5057517;28;20548;-80
2022/04/13 01:16:51;;;;;;;11.50;8.70;;;8.60;99.90;;;;;;5056912;28;20446;-79
2022/04/13 01:19:18;;;;;;;10.70;8.13;;;8.60;99.90;;;;;;5056764;28;20445;-79
2022/04/13 01:21:47;;;;;;;10.60;9.50;;;8.60;99.90;;;;;;5059044;28;20473;-80
2022/04/13 01:24:16;;;;;;;15.93;9.53;;;8.60;99.90;;;;;;5064827;28;20438;-79
2022/04/13 01:26:43;;;;;;;10.00;8.40;;;8.30;99.90;;;;;;5069619;28;20445;-78
2022/04/13 01:29:10;;;;;;;13.77;9.00;;;8.60;99.90;;;;;;5061714;28;20440;-81
2022/04/13 01:31:38;;;;;;;10.07;8.73;;;8.50;99.90;;;;;;5064319;28;20465;-80
2022/04/13 01:34:04;;;;;;;10.70;8.37;;;8.50;99.90;;;;;;5060909;28;20432;-80
2022/04/13 01:36:33;;;;;;;11.83;8.80;;;8.50;99.90;;;;;;5060660;28;20449;-79
2022/04/13 01:39:00;;;;;;;11.90;9.63;;;8.50;99.90;;;;;;5060620;28;20473;-80
2022/04/13 01:41:28;;;;;;;11.97;9.27;;;8.40;99.90;;;;;;5061142;28;20485;-80
2022/04/13 01:43:54;;;;;;;9.27;8.00;;;8.40;99.90;;;;;;5060378;28;20479;-80
2022/04/13 01:46:21;;;;;;;12.90;9.07;;;8.40;99.90;;;;;;5060312;28;20456;-80
2022/04/13 01:48:48;;;;;;;12.37;8.53;;;8.40;99.90;;;;;;5060643;28;20476;-80
2022/04/13 01:51:17;;;;;;;12.90;9.47;;;8.30;99.90;;;;;;5060413;28;20470;-81
2022/04/13 01:53:43;;;;;;;11.27;10.07;;;8.20;99.90;;;;;;5060983;28;20453;-80
2022/04/13 01:56:10;;;;;;;11.90;8.07;;;8.10;99.90;;;;;;5059886;28;20494;-80
2022/04/13 01:58:38;;;;;;;13.47;9.77;;;8.10;99.90;;;;;;5060416;28;20441;-81
2022/04/13 02:01:05;;;;;;;10.80;9.37;;;8.30;99.90;;;;;;5060303;28;21021;-79
2022/04/13 02:03:32;;;;;;;11.20;9.73;;;8.20;99.90;;;;;;5059751;28;20459;-81
2022/04/13 02:05:58;;;;;;;11.10;9.20;;;8.20;99.90;;;;;;5060865;28;20450;-80
2022/04/13 02:08:26;;;;;;;12.23;9.13;;;8.20;99.90;;;;;;5060044;28;20499;-79
2022/04/13 02:10:53;;;;;;;14.83;9.90;;;8.20;99.90;;;;;;5059609;28;20516;-79
2022/04/13 02:13:21;;;;;;;13.80;9.70;;;8.20;99.90;;;;;;5059007;28;20481;-80
2022/04/13 02:15:50;;;;;;;12.57;10.27;;;8.20;99.90;;;;;;5058982;28;21023;-79
2022/04/13 02:18:16;;;;;;;10.80;9.00;;;8.20;99.90;;;;;;5058949;28;20447;-80
2022/04/13 02:20:43;;;;;;;11.90;10.00;;;8.10;99.90;;;;;;5059157;28;20450;-79
2022/04/13 02:23:10;;;;;;;11.87;8.77;;;8.00;99.90;;;;;;5059890;28;20593;-81
2022/04/13 02:25:36;;;;;;;12.40;8.93;;;7.90;99.90;;;;;;5059069;28;20451;-81
2022/04/13 02:28:03;;;;;;;11.50;8.80;;;8.00;99.90;;;;;;5059604;28;20445;-79
2022/04/13 02:30:30;;;;;;;12.63;8.10;;;7.90;99.90;;;;;;5060099;28;20454;-80
2022/04/13 02:32:58;;;;;;;11.50;8.10;;;8.00;99.90;;;;;;5063022;28;20557;-78
2022/04/13 02:35:25;;;;;;;12.90;9.50;;;7.90;99.90;;;;;;5066449;28;20445;-78
2022/04/13 02:37:51;;;;;;;14.53;10.00;;;7.90;99.90;;;;;;5064713;28;20510;-81
2022/04/13 02:40:19;;;;;;;15.00;9.53;;;7.90;99.90;;;;;;5064356;28;20442;-80
2022/04/13 02:42:46;;;;;;;12.80;10.03;;;7.90;99.90;;;;;;5065832;28;21073;-78
2022/04/13 02:45:13;;;;;;;11.63;10.23;;;7.80;99.90;;;;;;5067057;28;20897;-78
2022/04/13 02:47:39;;;;;;;14.00;9.90;;;7.80;99.90;;;;;;5063481;28;20480;-80
2022/04/13 02:50:09;;;;;;;12.40;8.95;;;7.80;99.90;;;;;;5060710;28;20445;-79
2022/04/13 02:52:35;;;;;;;12.50;8.73;;;7.80;99.90;;;;;;5059226;28;20694;-80
2022/04/13 02:55:03;;;;;;;14.50;9.13;;;7.70;99.90;;;;;;5058782;28;20206;-82
2022/04/13 02:57:29;;;;;;;13.83;8.07;;;7.70;99.90;;;;;;5058280;28;20486;-81
2022/04/13 02:59:56;;;;;;;11.10;8.73;;;7.70;99.90;;;;;;5058954;28;20473;-80
2022/04/13 03:02:23;;;;;;;11.20;8.77;;;7.70;99.90;;;;;;5058883;28;20495;-81
2022/04/13 03:04:50;;;;;;;11.53;8.87;;;7.70;99.90;;;;;;5058569;28;20488;-82
2022/04/13 03:07:18;;;;;;;12.97;8.90;;;7.70;99.90;;;;;;5059288;28;20417;-80
2022/04/13 03:09:46;;;;;;;10.87;9.70;;;7.60;99.90;;;;;;5058455;28;21061;-81
2022/04/13 03:12:13;;;;;;;12.10;8.40;;;7.60;99.90;;;;;;5058015;28;20467;-79
2022/04/13 03:14:40;;;;;;;13.10;10.53;;;7.60;99.90;;;;;;5061213;28;20729;-78
2022/04/13 03:17:07;;;;;;;9.57;8.57;;;7.60;99.90;;;;;;5067415;28;20445;-79
2022/04/13 03:19:34;;;;;;;14.83;9.63;;;7.60;99.90;;;;;;5066466;28;20976;-79
2022/04/13 03:22:00;;;;;;;12.07;9.83;;;7.60;99.90;;;;;;5066362;28;20552;-79
2022/04/13 03:24:28;;;;;;;11.83;9.03;;;7.50;99.90;;;;;;5063403;28;20544;-80
2022/04/13 03:26:55;;;;;;;12.38;9.02;;;7.50;99.90;;;;;;5059071;28;20448;-80
2022/04/13 03:29:22;;;;;;;14.30;9.10;;;7.50;99.90;;;;;;5058863;28;20317;-79
2022/04/13 03:31:51;;;;;;;15.97;9.43;;;7.50;99.90;;;;;;5060314;28;21006;-79
2022/04/13 03:34:20;;;;;;;13.20;9.52;;;7.40;1.00;;;;;;5059255;28;20818;-80
2022/04/13 03:36:47;;;;;;;12.80;10.80;;;7.40;99.90;;;;;;5058943;28;20681;-80
2022/04/13 03:39:14;;;;;;;12.15;9.88;;;7.30;1.00;;;;;;5058183;28;21047;-79
2022/04/13 03:41:42;;;;;;;12.93;9.23;;;7.30;1.00;;;;;;5057973;28;20222;-80
2022/04/13 03:44:09;;;;;;;13.13;9.82;;;7.30;1.00;;;;;;5064470;28;20217;-78
2022/04/13 03:46:35;;;;;;;11.07;9.23;;;7.30;1.00;;;;;;5066602;28;20309;-78
2022/04/13 03:49:02;;;;;;;12.15;10.20;;;7.30;1.00;;;;;;5066978;28;20484;-80
2022/04/13 03:51:29;;;;;;;13.90;10.02;;;7.30;1.00;;;;;;5067341;28;20200;-79
2022/04/13 03:53:56;;;;;;;12.82;9.80;;;7.20;1.00;;;;;;5067224;28;20687;-79
2022/04/13 03:56:22;;;;;;;16.10;10.80;;;7.30;1.00;;;;;;5069087;28;20209;-79
2022/04/13 03:58:50;;;;;;;14.35;10.80;;;7.10;1.00;;;;;;5066765;28;20223;-79
2022/04/13 04:01:17;;;;;;;13.18;10.52;;;6.80;1.00;;;;;;5066373;28;20204;-78
2022/04/13 04:03:43;;;;;;;12.57;8.38;;;7.20;1.00;;;;;;5061913;28;20191;-79
2022/04/13 04:06:10;;;;;;;12.30;9.77;;;7.10;1.00;;;;;;5058979;28;20649;-79
2022/04/13 04:08:37;;;;;;;14.38;10.13;;;7.10;1.00;;;;;;5058516;28;20735;-80
2022/04/13 04:11:03;;;;;;;14.23;9.10;;;7.10;1.00;;;;;;5058256;28;20211;-79
2022/04/13 04:13:30;;;;;;;13.48;8.95;;;7.10;1.00;;;;;;5058363;28;20470;-79
2022/04/13 04:15:59;;;;;;;12.47;9.33;;;7.10;1.00;;;;;;5061466;28;20203;-79
2022/04/13 04:18:25;;;;;;;15.23;9.70;;;7.10;1.00;;;;;;5059852;28;20563;-79
2022/04/13 04:20:52;;;;;;;12.00;9.73;;;7.00;1.00;;;;;;5057679;28;20212;-80
2022/04/13 04:23:19;;;;;;;11.10;9.20;;;7.10;1.00;;;;;;5057986;28;20282;-81
2022/04/13 04:25:45;;;;;;;15.05;10.77;;;7.00;1.00;;;;;;5057092;28;20235;-80
2022/04/13 04:28:12;;;;;;;15.05;10.15;;;7.10;1.00;;;;;;5057216;28;20221;-80
2022/04/13 04:30:41;;;;;;;15.60;9.85;;;7.10;1.00;;;;;;5056509;28;20300;-79
2022/04/13 04:33:12;;;;;;;15.65;10.98;;;6.80;1.00;;;;;;5057662;28;20618;-79
2022/04/13 04:35:40;;;;;;;13.40;10.48;;;7.20;1.00;;;;;;5061696;28;20201;-79
2022/04/13 04:38:06;;;;;;;19.27;10.60;;;7.10;1.00;;;;;;5064872;28;20698;-79
2022/04/13 04:40:33;;;;;;;14.38;10.65;;;7.20;1.00;;;;;;5062365;28;20228;-79
2022/04/13 04:43:00;;;;;;;14.93;9.75;;;7.10;1.00;;;;;;5063603;28;20222;-79
2022/04/13 04:45:27;;;;;;;14.50;10.30;;;7.20;1.00;;;;;;5062798;28;20203;-81
2022/04/13 04:47:56;;;;;;;12.48;9.60;;;7.20;1.00;;;;;;5062205;28;20315;-80
2022/04/13 04:50:24;;;;;;;15.47;10.87;;;7.20;1.00;;;;;;5061823;28;20201;-79
2022/04/13 04:52:51;;;;;;;11.65;9.93;;;7.20;1.00;;;;;;5060316;28;20506;-79
2022/04/13 04:55:18;;;;;;;21.88;11.95;;;7.20;1.00;;;;;;5058663;28;20207;-79
2022/04/13 04:57:48;;;;;;;14.10;9.55;;;7.40;99.90;;;;;;5059573;28;20682;-79
2022/04/13 05:00:17;;;;;;;20.15;10.00;;;7.20;1.00;;;;;;5059590;28;20669;-79
2022/04/13 05:02:44;;;;;;;13.02;10.68;;;7.20;30.80;;;;;;5060949;28;20279;-79
2022/04/13 05:05:13;;;;;;;11.10;8.93;;;7.20;1.00;;;;;;5059178;28;20209;-80
2022/04/13 05:07:41;;;;;;;13.57;9.50;;;7.50;32.80;;;;;;5057861;28;20215;-80
2022/04/13 05:10:09;;;;;;;14.80;10.68;;;7.30;1.00;;;;;;5057794;28;20457;-80
2022/04/13 05:12:43;;;;;;;16.40;10.50;;;7.30;1.00;;;;;;5056395;28;20257;-80
2022/04/13 05:15:11;;;;;;;15.20;9.57;;;7.30;1.00;;;;;;5056753;28;20432;-78
2022/04/13 05:17:37;;;;;;;21.38;9.85;;;7.30;46.80;;;;;;5056328;28;20979;-80
2022/04/13 05:20:05;;;;;;;17.83;11.23;;;7.30;1.00;;;;;;5056658;28;20203;-79
2022/04/13 05:22:32;;;;;;;13.30;10.17;;;7.50;1.00;;;;;;5056686;28;20452;-83
2022/04/13 05:25:07;;;;;;;17.40;9.67;;;7.40;1.00;;;;;;5059072;28;20465;-80
2022/04/13 05:27:34;;;;;;;13.73;10.47;;;7.50;1.00;;;;;;5057722;28;20425;-81
2022/04/13 05:30:01;;;;;;;13.87;10.30;;;7.50;1.00;;;;;;5057720;28;20545;-80
2022/04/13 05:32:28;;;;;;;11.02;9.23;;;7.50;1.00;;;;;;5056471;28;20444;-80
2022/04/13 05:35:01;;;;;;;14.15;9.52;;;7.50;1.00;;;;;;5056080;28;20259;-80
2022/04/13 05:37:28;;;;;;;15.00;11.05;;;7.60;1.00;;;;;;5056892;28;20210;-81
2022/04/13 05:39:54;;;;;;;11.47;9.53;;;7.50;1.00;;;;;;5057031;28;20222;-80
2022/04/13 05:42:24;;;;;;;15.25;9.60;;;7.80;1.00;;;;;;5056145;28;20479;-79
2022/04/13 05:44:51;;;;;;;14.60;9.97;;;7.70;1.00;;;;;;5056655;28;20282;-80
2022/04/13 05:47:18;;;;;;;12.75;9.07;;;7.70;1.00;;;;;;5058590;28;20455;-82
2022/04/13 05:49:45;;;;;;;14.40;10.10;;;7.80;1.00;;;;;;5060472;28;20235;-80
2022/04/13 05:52:12;;;;;;;17.80;10.77;;;7.80;1.00;;;;;;5057765;28;20915;-81
2022/04/13 05:54:38;;;;;;;20.43;10.80;;;7.80;1.00;;;;;;5057483;28;20454;-80
2022/04/13 05:57:05;;;;;;;17.53;10.13;;;7.90;1.00;;;;;;5056685;28;20534;-80
2022/04/13 05:59:33;;;;;;;18.97;11.40;;;8.00;1.00;;;;;;5057017;28;20481;-79
2022/04/13 06:02:00;;;;;;;14.80;10.30;;;8.00;1.00;;;;;;5057530;28;20460;-79
2022/04/13 06:04:26;;;;;;;11.63;9.30;;;8.30;1.00;;;;;;5056862;28;20480;-81
2022/04/13 06:06:54;;;;;;;12.20;10.10;;;8.40;99.90;;;;;;5058464;28;20499;-80
2022/04/13 06:09:22;;;;;;;16.43;9.90;;;8.50;99.90;;;;;;5059124;28;20450;-79
2022/04/13 06:11:49;;;;;;;15.20;10.77;;;8.50;99.90;;;;;;5059767;28;20522;-79
2022/04/13 06:14:15;;;;;;;17.10;10.70;;;8.70;99.90;;;;;;5059887;28;20476;-80
2022/04/13 06:16:43;;;;;;;19.90;11.37;;;8.80;99.90;;;;;;5060614;28;20461;-79
2022/04/13 06:19:10;;;;;;;12.33;9.43;;;8.90;99.90;;;;;;5059430;28;20513;-80
2022/04/13 06:21:37;;;;;;;12.00;9.70;;;8.90;99.90;;;;;;5060272;28;20461;-81
2022/04/13 06:24:04;;;;;;;14.80;9.87;;;9.00;99.90;;;;;;5059896;28;20484;-80
2022/04/13 06:26:31;;;;;;;11.00;9.80;;;9.10;99.90;;;;;;5060490;28;20467;-81
2022/04/13 06:28:57;;;;;;;17.10;11.30;;;9.20;99.90;;;;;;5060977;28;20509;-80
2022/04/13 06:31:24;;;;;;;15.10;10.30;;;9.30;99.90;;;;;;5063599;28;20465;-80
2022/04/13 06:33:52;;;;;;;13.23;10.57;;;9.40;99.90;;;;;;5063418;28;20442;-80
2022/04/13 06:36:19;;;;;;;12.83;10.37;;;9.50;99.90;;;;;;5063779;28;20449;-81
2022/04/13 06:38:46;;;;;;;16.00;10.77;;;9.70;99.90;;;;;;5062784;28;20968;-80
2022/04/13 06:41:13;;;;;;;13.63;10.50;;;9.70;99.90;;;;;;5063138;28;20472;-78
2022/04/13 06:43:39;;;;;;;12.70;9.07;;;10.10;1.00;;;;;;5067675;28;20485;-78
2022/04/13 06:46:07;;;;;;;11.13;9.60;;;9.90;99.90;;;;;;5067691;28;20446;-78
2022/04/13 06:48:34;;;;;;;12.43;9.13;;;10.10;99.90;;;;;;5093016;22;20872;-80
2022/04/13 06:51:03;;;;;;;12.80;9.13;;;10.20;99.90;;;;;;5081359;28;20787;-80
2022/04/13 06:53:30;;;;;;;15.47;9.03;;;10.30;99.90;;;;;;5082223;28;20751;-80
2022/04/13 06:55:56;;;;;;;15.07;9.43;;;10.30;99.90;;;;;;5081538;28;20445;-79
2022/04/13 06:58:23;;;;;;;15.30;9.97;;;10.70;1.00;;;;;;5085181;28;20449;-79
2022/04/13 07:00:49;;;;;;;11.87;9.60;;;10.50;99.90;;;;;;5086541;28;20465;-79
2022/04/13 07:03:16;;;;;;;11.40;9.20;;;10.60;99.90;;;;;;5083428;28;20528;-78
2022/04/13 07:05:43;;;;;;;10.70;8.20;;;10.70;99.90;;;;;;5088238;28;20457;-78
2022/04/13 07:08:11;;;;;;;12.30;9.20;;;10.80;99.90;;;;;;5089299;28;20440;-79
2022/04/13 07:10:38;;;;;;;13.10;8.90;;;10.80;99.90;;;;;;5089576;28;20452;-79
2022/04/13 07:13:05;;;;;;;11.37;8.67;;;10.90;99.90;;;;;;5090484;28;20928;-78
2022/04/13 07:15:31;;;;;;;10.73;8.80;;;11.00;99.90;;;;;;5090357;28;20456;-78
2022/04/13 07:17:58;;;;;;;9.80;8.33;;;11.20;99.90;;;;;;5081381;28;20441;-80
2022/04/13 07:20:25;;;;;;;14.67;9.23;;;11.30;99.90;;;;;;5083657;28;20472;-80
2022/04/13 07:22:53;;;;;;;12.90;9.50;;;11.40;99.90;;;;;;5080439;28;20480;-81
2022/04/13 07:25:22;;;;;;;11.77;8.37;;;11.50;99.90;;;;;;5078955;28;21005;-81
2022/04/13 07:27:49;;;;;;;11.73;9.33;;;11.70;99.90;;;;;;5081378;28;20460;-79
2022/04/13 07:30:16;;;;;;;17.03;9.83;;;11.80;99.90;;;;;;5079949;28;20496;-80
2022/04/13 07:32:44;;;;;;;17.90;8.97;;;11.90;99.90;;;;;;5078934;28;20479;-81
2022/04/13 07:35:11;;;;;;;12.57;9.10;;;12.10;99.90;;;;;;5080730;28;20448;-80
2022/04/13 07:37:39;;;;;;;13.13;8.17;;;12.10;99.90;;;;;;5079691;28;20777;-79
2022/04/13 07:40:08;;;;;;;16.97;9.23;;;12.20;99.90;;;;;;5079979;28;20823;-79
2022/04/13 07:42:36;;;;;;;19.63;9.43;;;12.20;1.00;;;;;;5086603;28;20511;-79
2022/04/13 07:45:03;;;;;;;16.53;10.13;;;12.40;99.90;;;;;;5082177;28;20472;-79
2022/04/13 07:47:31;;;;;;;17.53;9.73;;;12.50;99.90;;;;;;5080129;28;20448;-79
2022/04/13 07:49:58;;;;;;;14.60;8.53;;;12.60;99.90;;;;;;5078698;28;21002;-79
2022/04/13 07:52:25;;;;;;;13.33;8.90;;;12.60;99.90;;;;;;5081175;28;20964;-83
2022/04/13 07:54:52;;;;;;;11.90;9.00;;;12.40;1.00;;;;;;5083453;28;20448;-79
2022/04/13 07:57:18;;;;;;;10.50;8.13;;;12.80;1.00;;;;;;5082232;28;20452;-79
2022/04/13 07:59:46;;;;;;;14.80;9.00;;;12.60;1.00;;;;;;5083890;28;20489;-80
2022/04/13 08:02:13;;;;;;;13.47;8.77;;;12.20;1.00;;;;;;5082983;28;20453;-79
2022/04/13 08:04:41;;;;;;;21.03;12.30;;;12.80;1.00;;;;;;5083398;28;20917;-79
2022/04/13 08:07:08;;;;;;;11.57;8.87;;;13.10;1.00;;;;;;5081061;28;20951;-80
2022/04/13 08:09:37;;;;;;;15.70;9.50;;;13.00;1.00;;;;;;5078836;28;20481;-80
2022/04/13 08:12:04;;;;;;;19.43;10.23;;;13.20;1.00;;;;;;5077978;28;20460;-80
2022/04/13 08:14:30;;;;;;;14.23;9.00;;;13.50;1.00;;;;;;5078679;28;20443;-78
2022/04/13 08:17:03;;;;;;;14.07;10.07;;;13.60;1.00;;;;;;5078184;28;20467;-80
2022/04/13 08:19:30;;;;;;;12.10;9.47;;;13.30;1.00;;;;;;5084347;28;20508;-79
2022/04/13 08:21:57;;;;;;;13.13;10.03;;;13.40;1.00;;;;;;5086327;28;20445;-79
2022/04/13 08:24:23;;;;;;;13.30;9.27;;;13.80;1.00;;;;;;5079037;28;20868;-79
2022/04/13 08:26:50;;;;;;;13.60;9.30;;;13.80;1.00;;;;;;5078438;28;20488;-79
2022/04/13 08:29:17;;;;;;;13.27;9.67;;;13.90;1.00;;;;;;5077138;28;20489;-79
2022/04/13 08:31:43;;;;;;;15.57;9.80;;;13.90;1.00;;;;;;5077309;28;20507;-79
2022/04/13 08:34:11;;;;;;;12.47;8.20;;;13.90;1.00;;;;;;5076957;28;20470;-79
2022/04/13 08:36:38;;;;;;;16.60;9.20;;;13.90;1.00;;;;;;5080542;28;20451;-78
2022/04/13 08:39:13;;;;;;;16.50;9.57;;;13.90;1.00;;;;;;5078078;28;20489;-79
2022/04/13 08:41:46;;;;;;;13.67;9.37;;;14.10;1.00;;;;;;5079809;28;20463;-79
2022/04/13 08:44:16;;;;;;;13.43;9.00;;;14.00;1.00;;;;;;5082984;28;20465;-78
2022/04/13 08:46:45;;;;;;;16.83;8.77;;;14.20;1.00;;;;;;5083376;28;20455;-78
2022/04/13 08:49:15;;;;;;;11.80;8.67;;;14.30;1.00;;;;;;5082692;28;20461;-78
2022/04/13 08:51:42;;;;;;;12.13;8.20;;;14.50;1.00;;;;;;5082348;28;20457;-78
2022/04/13 08:54:14;;;;;;;14.17;9.33;;;14.40;1.00;;;;;;5079658;28;20982;-79
2022/04/13 08:56:44;;;;;;;14.90;10.33;;;14.60;1.00;;;;;;5079967;28;20464;-79
2022/04/13 08:59:22;;;;;;;12.20;9.07;;;14.50;1.00;;;;;;5078407;28;20479;-79
2022/04/13 09:01:59;;;;;;;11.83;8.10;;;14.40;1.00;;;;;;5083728;28;20429;-79
2022/04/13 09:04:28;;;;;;;14.80;8.73;;;14.60;1.00;;;;;;5084807;28;20485;-78
2022/04/13 09:07:00;;;;;;;11.87;8.93;;;14.60;1.00;;;;;;5090988;28;20464;-78
2022/04/13 09:09:41;;;;;;;13.50;8.50;;;15.00;1.00;;;;;;5093985;28;20524;-79
2022/04/13 09:12:09;;;;;;;12.07;8.60;;;15.00;1.00;;;;;;5088647;28;20438;-78
2022/04/13 09:14:36;;;;;;;12.20;8.33;;;15.00;1.00;;;;;;5088913;28;20918;-78
2022/04/13 09:17:03;;;;;;;12.73;9.10;;;14.80;1.00;;;;;;5087636;28;20455;-78
2022/04/13 09:19:31;;;;;;;15.43;9.17;;;15.10;1.00;;;;;;5086453;28;20555;-77
2022/04/13 09:22:00;;;;;;;12.73;9.57;;;15.40;1.00;;;;;;5086871;28;20475;-78
2022/04/13 09:24:28;;;;;;;11.27;8.37;;;15.20;1.00;;;;;;5087007;28;20505;-79
2022/04/13 09:26:55;;;;;;;12.70;9.50;;;15.40;1.00;;;;;;5086670;28;20926;-78
2022/04/13 09:29:21;;;;;;;13.17;9.37;;;15.40;1.00;;;;;;5086383;28;20467;-78
2022/04/13 09:31:48;;;;;;;14.13;9.40;;;15.30;1.00;;;;;;5087069;28;20510;-78
2022/04/13 09:34:15;;;;;;;12.70;8.83;;;15.50;1.00;;;;;;5088127;28;20850;-79
2022/04/13 09:36:43;;;;;;;12.43;9.97;;;15.50;1.00;;;;;;5092295;28;20481;-79
2022/04/13 09:39:11;;;;;;;14.10;8.20;;;;;;;;;;5095873;28;20538;-79
2022/04/13 09:41:39;;;;;;;12.53;8.90;;;15.80;1.00;;;;;;5090628;28;20921;-78
2022/04/13 09:44:13;;;;;;;10.70;8.50;;;15.70;1.00;;;;;;5090383;28;20482;-78
2022/04/13 09:46:40;;;;;;;12.37;8.43;;;15.90;1.00;;;;;;5090643;28;20899;-78
2022/04/13 09:49:12;;;;;;;10.47;8.57;;;16.10;1.00;;;;;;5090713;28;20516;-78
2022/04/13 09:51:40;;;;;;;17.07;8.80;;;15.80;1.00;;;;;;5090501;28;20436;-78
2022/04/13 09:54:10;;;;;;;11.10;8.30;;;15.90;1.00;;;;;;5091998;28;20520;-78
2022/04/13 09:56:38;;;;;;;16.67;8.80;;;16.10;99.90;;;;;;5091602;28;20440;-79
2022/04/13 09:59:05;;;;;;;10.63;8.27;;;16.20;99.90;;;;;;5090436;28;20468;-78
2022/04/13 10:01:33;;;;;;;12.90;9.60;;;16.20;99.90;;;;;;5090721;28;20440;-78
2022/04/13 10:04:00;;;;;;;14.27;8.77;;;16.50;99.90;;;;;;5085397;28;21002;-79
2022/04/13 10:06:28;;;;;;;14.30;7.70;;;16.50;99.90;;;;;;5096047;28;20428;-79
2022/04/13 10:09:01;;;;;;;13.43;8.43;;;16.50;99.90;;;;;;5100560;28;20475;-79
2022/04/13 10:11:29;;;;;;;14.90;8.57;;;16.50;99.90;;;;;;5100357;28;20472;-79
2022/04/13 10:13:56;;;;;;;9.93;8.00;;;16.60;99.90;;;;;;5090641;28;20463;-79
2022/04/13 10:16:23;;;;;;;15.40;11.10;;;16.60;99.90;;;;;;5094682;28;20476;-78
2022/04/13 10:18:54;;;;;;;14.87;9.60;;;16.60;99.90;;;;;;5097494;28;20464;-79
2022/04/13 10:21:40;;;;;;;22.63;14.93;;;16.70;99.90;;;;;;5094601;28;20508;-79
2022/04/13 10:24:08;;;;;;;13.20;8.43;;;16.70;99.90;;;;;;5090890;28;20475;-81
2022/04/13 10:26:36;;;;;;;13.10;8.30;;;16.80;99.90;;;;;;5089194;28;20445;-81
2022/04/13 10:29:15;;;;;;;12.97;8.93;;;16.80;99.90;;;;;;5088177;28;20536;-82
2022/04/13 10:31:42;;;;;;;11.50;8.70;;;16.90;99.90;;;;;;5086558;28;20440;-80
2022/04/13 10:34:09;;;;;;;12.00;9.30;;;17.00;99.90;;;;;;5085814;28;20459;-81
2022/04/13 10:36:36;;;;;;;12.97;8.87;;;17.00;99.90;;;;;;5086569;28;20441;-79
2022/04/13 10:39:04;;;;;;;10.67;8.50;;;17.10;99.90;;;;;;5081658;28;20522;-79
2022/04/13 10:41:31;;;;;;;13.47;8.97;;;17.20;99.90;;;;;;5080888;28;20897;-80
2022/04/13 10:44:02;;;;;;;11.57;8.63;;;17.10;99.90;;;;;;5082558;28;20511;-80
2022/04/13 10:46:31;;;;;;;17.33;8.13;;;17.10;99.90;;;;;;5086901;28;20432;-78
2022/04/13 10:49:07;;;;;;;10.70;8.10;;;17.20;99.90;;;;;;5088544;28;20480;-80
2022/04/13 10:51:37;;;;;;;14.60;8.90;;;17.30;99.90;;;;;;5081143;28;20519;-80
2022/04/13 10:54:06;;;;;;;10.17;8.47;;;17.40;99.90;;;;;;5080461;28;20853;-79
2022/04/13 10:56:34;;;;;;;11.13;8.47;;;17.50;99.90;;;;;;5085496;28;20444;-79
2022/04/13 10:59:11;;;;;;;15.60;9.77;;;17.60;99.90;;;;;;5089213;28;20469;-79
2022/04/13 11:01:45;;;;;;;9.53;7.80;;;17.70;99.90;;;;;;5095230;28;20412;-79
2022/04/13 11:04:13;;;;;;;13.20;7.93;;;18.00;99.90;;;;;;5099243;28;20465;-78
2022/04/13 11:06:40;;;;;;;10.83;8.43;;;17.90;99.90;;;;;;5097076;28;20425;-79
2022/04/13 11:09:09;;;;;;;10.87;7.87;;;17.80;99.90;;;;;;5098518;28;20461;-79
2022/04/13 11:11:37;;;;;;;10.93;7.50;;;17.80;99.90;;;;;;5093596;28;20513;-78
2022/04/13 11:14:18;;;;;;;11.40;6.70;;;17.90;99.90;;;;;;5089707;28;20503;-78
2022/04/13 11:16:45;;;;;;;20.93;10.90;;;17.90;99.90;;;;;;5088250;28;20431;-79
2022/04/13 11:19:21;;;;;;;12.77;7.90;;;18.10;99.90;;;;;;5084305;28;20465;-79
2022/04/13 11:22:16;;;;;;;8.67;7.60;;;18.10;99.90;;;;;;5083122;28;20534;-80
2022/04/13 11:24:56;;;;;;;10.20;7.50;;;18.20;99.90;;;;;;5082765;28;20484;-79
2022/04/13 11:27:25;;;;;;;15.00;7.97;;;18.20;99.90;;;;;;5084934;28;20460;-79
2022/04/13 11:30:01;;;;;;;12.37;7.03;;;18.20;99.90;;;;;;5082216;28;20521;-79
2022/04/13 11:32:32;;;;;;;10.40;7.37;;;18.30;99.90;;;;;;5080659;28;20425;-81
2022/04/13 11:35:00;;;;;;;11.80;7.80;;;18.50;99.90;;;;;;5082229;28;20483;-80
2022/04/13 11:37:43;;;;;;;14.63;7.77;;;18.40;99.90;;;;;;5081001;28;20483;-80
2022/04/13 11:40:12;;;;;;;10.90;8.10;;;18.60;99.90;;;;;;5083819;28;20556;-81
2022/04/13 11:43:01;;;;;;;9.50;7.60;;;18.80;99.90;;;;;;5089273;28;20444;-79
2022/04/13 11:45:29;;;;;;;8.73;7.60;;;18.80;99.90;;;;;;5086635;28;20439;-80
2022/04/13 11:47:58;;;;;;;11.63;7.00;;;18.90;99.90;;;;;;5088526;28;20469;-80
2022/04/13 11:50:26;;;;;;;9.13;8.07;;;19.00;99.90;;;;;;5084211;28;20485;-79
2022/04/13 11:52:54;;;;;;;9.60;6.83;;;19.00;99.90;;;;;;5083197;28;20503;-80
2022/04/13 11:55:22;;;;;;;8.60;6.63;;;20.00;99.90;;;;;;5085188;28;20445;-81
2022/04/13 11:58:19;;;;;;;9.60;7.37;;;19.10;99.90;;;;;;5089871;28;20500;-81
2022/04/13 12:00:52;;;;;;;8.87;6.90;;;19.20;99.90;;;;;;5093337;28;20433;-80
2022/04/13 12:03:23;;;;;;;10.37;7.80;;;19.40;99.90;;;;;;5090095;28;20508;-80
2022/04/13 12:05:51;;;;;;;13.20;9.00;;;19.50;99.90;;;;;;5079773;28;20476;-78
2022/04/13 12:08:20;;;;;;;9.43;6.80;;;19.70;1.00;;;;;;5080469;28;20510;-80
2022/04/13 12:10:50;;;;;;;7.97;6.90;;;19.60;99.90;;;;;;5081469;28;20520;-79
2022/04/13 12:13:17;;;;;;;8.00;6.07;;;19.70;99.90;;;;;;5084671;28;20448;-80
2022/04/13 12:15:47;;;;;;;6.50;5.90;;;19.90;99.90;;;;;;5079631;28;20440;-81
2022/04/13 12:18:15;;;;;;;9.00;6.40;;;19.50;1.00;;;;;;5081377;28;20488;-81
2022/04/13 12:20:41;;;;;;;7.70;6.90;;;19.80;99.90;;;;;;5081859;28;20464;-80
2022/04/13 12:23:19;;;;;;;8.03;6.50;;;19.90;99.90;;;;;;5079141;28;20476;-81
2022/04/13 12:25:47;;;;;;;7.10;6.20;;;20.00;99.90;;;;;;5079555;28;20511;-81
2022/04/13 12:28:14;;;;;;;7.37;6.50;;;20.20;99.90;;;;;;5079293;28;20448;-81
2022/04/13 12:30:41;;;;;;;8.50;6.77;;;20.20;99.90;;;;;;5078870;28;20449;-80
2022/04/13 12:33:21;;;;;;;7.50;6.27;;;20.20;99.90;;;;;;5079428;28;20824;-79
2022/04/13 12:35:50;;;;;;;9.70;6.10;;;20.20;99.90;;;;;;5078822;28;20429;-80
2022/04/13 12:38:28;;;;;;;10.00;6.67;;;19.90;1.00;;;;;;5078630;28;20807;-81
2022/04/13 12:41:09;;;;;;;8.90;6.20;;;20.00;99.90;;;;;;5079430;28;20433;-80
2022/04/13 12:43:37;;;;;;;8.77;5.20;;;20.10;99.90;;;;;;5078000;28;20487;-80
2022/04/13 12:46:18;;;;;;;6.60;5.73;;;20.00;99.90;;;;;;5080038;28;20484;-82
2022/04/13 12:48:48;;;;;;;7.40;6.00;;;20.00;1.00;;;;;;5101943;22;20510;-82
2022/04/13 12:51:16;;;;;;;7.60;5.30;;;20.30;99.90;;;;;;5062143;28;20448;-82